Time;durP1;ratioP1;P1;durP2;ratioP2;P2;SDS_P1;SDS_P2;PMS_P1;PMS_P2;Temp;Humidity;BMP_temperature;BMP_pressure;BME280_temperature;BME280_humidity;BME280_pressure;Samples;Min_cycle;Max_cycle;Signal;HPM_P1;HPM_P2
2022/12/15 07:09:16;;;;;;;9.48;2.38;;;;;;;18.41;100.00;101337.34;2101953;27;20421;-75
2022/12/15 07:10:40;;;;;;;9.95;2.25;;;;;;;18.54;100.00;101339.91;2094026;28;20075;-76
2022/12/15 07:12:02;;;;;;;8.40;2.30;;;;;;;18.68;100.00;101342.53;2090530;28;20040;-76
2022/12/15 07:13:25;;;;;;;11.48;2.60;;;;;;;18.85;100.00;101328.97;2109551;28;20074;-76
2022/12/15 07:14:48;;;;;;;3.40;1.42;;;;;;;18.96;100.00;101319.97;2097860;28;20044;-76
2022/12/15 07:16:10;;;;;;;3.97;1.30;;;;;;;19.06;100.00;101323.44;2109728;28;20051;-75
2022/12/15 07:17:33;;;;;;;11.38;2.40;;;;;;;19.18;100.00;101298.31;2102434;28;20098;-73
2022/12/15 07:18:55;;;;;;;8.75;1.90;;;;;;;19.26;100.00;101308.03;2111557;28;20047;-73
2022/12/15 07:20:17;;;;;;;15.05;4.20;;;;;;;19.35;100.00;101310.63;2097838;28;20032;-74
2022/12/15 07:21:41;;;;;;;10.15;2.65;;;;;;;19.45;100.00;101304.25;2108970;28;20058;-73
2022/12/15 07:23:06;;;;;;;8.30;2.45;;;;;;;19.52;100.00;101304.19;2097536;28;20049;-73
2022/12/15 07:24:30;;;;;;;7.72;2.30;;;;;;;19.57;100.00;101303.22;2095334;28;20392;-73
2022/12/15 07:25:53;;;;;;;7.57;2.28;;;;;;;19.62;100.00;101288.00;2092849;28;20044;-73
2022/12/15 07:27:16;;;;;;;7.93;1.52;;;;;;;19.69;100.00;101289.66;2095402;28;20438;-73
2022/12/15 07:28:39;;;;;;;4.10;1.08;;;;;;;19.78;100.00;101292.25;2092109;28;20067;-73
2022/12/15 07:30:01;;;;;;;9.63;1.65;;;;;;;19.85;100.00;101279.63;2100997;28;20048;-73
2022/12/15 07:31:24;;;;;;;5.43;1.60;;;;;;;19.88;100.00;101291.22;2099583;28;20479;-73
2022/12/15 07:32:46;;;;;;;7.20;1.85;;;;;;;19.95;100.00;101275.06;2117901;28;20391;-73
2022/12/15 07:34:08;;;;;;;6.53;1.52;;;;;;;19.98;100.00;101291.97;2106177;28;20051;-72
2022/12/15 07:35:31;;;;;;;7.78;1.80;;;;;;;20.06;100.00;101281.13;2117715;28;20391;-73
2022/12/15 07:36:53;;;;;;;9.85;1.85;;;;;;;20.11;100.00;101287.31;2106322;28;20048;-73
2022/12/15 07:38:14;;;;;;;6.50;1.90;;;;;;;20.18;100.00;101280.94;2103537;28;20745;-73
2022/12/15 07:39:38;;;;;;;6.97;1.98;;;;;;;20.27;100.00;101279.00;2095295;28;20159;-73
2022/12/15 07:41:02;;;;;;;8.45;2.85;;;;;;;20.34;100.00;101289.66;2095342;28;20052;-73
2022/12/15 07:42:24;;;;;;;8.82;1.83;;;;;;;20.39;100.00;101288.69;2098154;28;20032;-74
2022/12/15 07:43:47;;;;;;;6.20;1.27;;;;;;;20.45;100.00;101288.56;2092455;28;20087;-74
2022/12/15 07:45:11;;;;;;;6.43;2.72;;;;;;;20.48;100.00;101284.97;2106717;28;20055;-74
2022/12/15 07:46:33;;;;;;;7.97;1.65;;;;;;;20.49;100.00;101284.03;2097459;28;20049;-73
2022/12/15 07:47:56;;;;;;;8.52;1.77;;;;;;;20.53;100.00;101292.03;2086774;28;20568;-73
2022/12/15 07:49:19;;;;;;;8.52;2.25;;;;;;;20.59;100.00;101293.72;2100577;28;20044;-73
2022/12/15 07:50:41;;;;;;;10.65;2.05;;;;;;;20.61;100.00;101294.59;2094881;28;20049;-73
2022/12/15 07:52:04;;;;;;;7.28;2.03;;;;;;;20.62;100.00;101297.22;2117269;28;20051;-73
2022/12/15 07:53:28;;;;;;;12.88;3.35;;;;;;;20.69;100.00;101288.16;2106096;28;20048;-73
2022/12/15 07:54:51;;;;;;;7.47;2.65;;;;;;;20.77;100.00;101297.88;2103373;28;20067;-74
2022/12/15 07:56:14;;;;;;;9.95;2.28;;;;;;;20.81;100.00;101307.63;2117555;28;20085;-73
2022/12/15 07:57:36;;;;;;;12.60;3.53;;;;;;;20.83;100.00;101303.13;2105865;28;20051;-73
2022/12/15 07:58:58;;;;;;;7.78;2.80;;;;;;;20.87;100.00;101303.03;2117272;28;20054;-73
2022/12/15 08:00:21;;;;;;;13.05;4.68;;;;;;;20.93;100.00;101304.75;2089408;28;20041;-73
2022/12/15 08:01:44;;;;;;;7.70;2.33;;;;;;;20.96;100.00;101304.66;2106346;28;20036;-73
2022/12/15 08:03:06;;;;;;;13.50;3.05;;;;;;;20.99;100.00;101296.56;2097146;28;20064;-73
2022/12/15 08:04:28;;;;;;;7.95;2.83;;;;;;;21.03;100.00;101303.66;2108985;28;20139;-73
2022/12/15 08:05:51;;;;;;;10.50;3.13;;;;;;;21.05;100.00;101299.16;2089122;28;20052;-73
2022/12/15 08:07:13;;;;;;;9.90;2.70;;;;;;;21.09;100.00;101303.53;2092298;28;20033;-73
2022/12/15 08:08:36;;;;;;;7.57;2.47;;;;;;;21.11;100.00;101300.81;2083849;28;20060;-74
2022/12/15 08:09:59;;;;;;;7.38;2.55;;;;;;;21.18;100.00;101303.41;2092160;28;20060;-73
2022/12/15 08:11:23;;;;;;;7.80;2.63;;;;;;;21.25;100.00;101297.00;2109224;28;20050;-73
2022/12/15 08:12:46;;;;;;;10.38;2.22;;;;;;;21.28;100.00;101299.59;2097366;28;20144;-74
2022/12/15 08:14:08;;;;;;;10.75;2.65;;;;;;;21.32;100.00;101292.38;2108106;28;20048;-73
2022/12/15 08:15:30;;;;;;;7.40;1.63;;;;;;;21.32;100.00;101282.53;2106123;28;20067;-73
2022/12/15 08:16:53;;;;;;;7.72;1.50;;;;;;;21.34;100.00;101280.69;2117517;28;20437;-73
2022/12/15 08:18:15;;;;;;;8.75;2.10;;;;;;;21.32;100.00;101287.00;2097408;28;20037;-73
2022/12/15 08:19:40;;;;;;;8.07;1.60;;;;;;;21.32;100.00;101285.22;2109504;28;20080;-73
2022/12/15 08:21:03;;;;;;;5.05;1.35;;;;;;;21.34;100.00;101286.03;2091616;28;20501;-73
2022/12/15 08:22:25;;;;;;;4.65;1.45;;;;;;;21.35;100.00;101290.50;2095147;28;20064;-73
2022/12/15 08:23:48;;;;;;;8.57;1.52;;;;;;;21.40;100.00;101282.34;2090210;28;20053;-73
2022/12/15 08:25:12;;;;;;;8.68;1.55;;;;;;;21.46;100.00;101291.16;2109038;28;20032;-73
2022/12/15 08:26:35;;;;;;;6.95;1.63;;;;;;;21.53;100.00;101291.06;2091142;28;20048;-74
2022/12/15 08:27:57;;;;;;;8.95;1.88;;;;;;;21.57;100.00;101290.06;2103350;28;20138;-73
2022/12/15 08:29:20;;;;;;;8.10;1.65;;;;;;;21.57;100.00;101290.97;2092070;28;20048;-73
2022/12/15 08:30:42;;;;;;;5.50;1.67;;;;;;;21.59;100.00;101277.50;2095342;28;20059;-73
2022/12/15 08:32:05;;;;;;;5.38;1.40;;;;;;;21.65;100.00;101290.81;2095013;28;20048;-74
2022/12/15 08:33:28;;;;;;;9.40;1.10;;;;;;;21.76;100.00;101299.50;2092830;28;20036;-72
2022/12/15 08:34:50;;;;;;;7.10;1.77;;;;;;;21.85;100.00;101288.56;2111643;28;20422;-74
2022/12/15 08:36:15;;;;;;;7.78;1.73;;;;;;;21.91;100.00;101287.53;2097906;28;20043;-73
2022/12/15 08:37:38;;;;;;;6.65;1.42;;;;;;;21.94;100.00;101291.03;2095093;28;20056;-74
2022/12/15 08:39:01;;;;;;;8.20;1.77;;;;;;;22.02;100.00;101290.91;2111163;28;20052;-73
2022/12/15 08:40:25;;;;;;;6.30;1.65;;;;;;;22.14;100.00;101291.50;2100097;28;20086;-73
2022/12/15 08:41:48;;;;;;;8.60;1.23;;;;;;;22.21;100.00;101273.41;2111906;28;20059;-74
2022/12/15 08:43:10;;;;;;;9.77;1.35;;;;;;;22.21;100.00;101282.34;2100136;28;20479;-73
2022/12/15 08:44:33;;;;;;;8.38;1.40;;;;;;;22.19;100.00;101283.28;2111762;28;20044;-73
2022/12/15 08:45:56;;;;;;;7.05;1.63;;;;;;;22.23;100.00;101283.22;2099980;28;20048;-73
2022/12/15 08:47:18;;;;;;;3.90;1.33;;;;;;;22.29;100.00;101274.09;2097536;28;20056;-73
2022/12/15 08:48:41;;;;;;;7.13;1.75;;;;;;;22.33;100.00;101272.22;2110377;28;20054;-73
2022/12/15 08:50:03;;;;;;;6.43;2.03;;;;;;;22.35;100.00;101268.56;2092011;28;20045;-73
2022/12/15 08:51:28;;;;;;;9.43;1.92;;;;;;;22.34;100.00;101271.28;2089375;28;20092;-74
2022/12/15 08:52:50;;;;;;;8.13;1.98;;;;;;;22.34;100.00;101268.59;2103297;28;20060;-73
2022/12/15 08:54:12;;;;;;;8.52;2.10;;;;;;;22.38;100.00;101275.69;2083496;28;20052;-73
2022/12/15 08:55:36;;;;;;;9.07;2.03;;;;;;;22.41;100.00;101267.53;2083994;28;20052;-73
2022/12/15 08:56:58;;;;;;;6.25;2.05;;;;;;;22.38;100.00;101267.63;2086729;28;20069;-73
2022/12/15 08:58:21;;;;;;;9.52;2.25;;;;;;;22.38;100.00;101264.94;2091402;28;20052;-73
2022/12/15 08:59:43;;;;;;;6.75;2.00;;;;;;;22.40;100.00;101266.63;2086020;28;20052;-73
2022/12/15 09:01:07;;;;;;;7.75;2.05;;;;;;;22.43;100.00;101263.88;2086981;28;20631;-74
2022/12/15 09:02:29;;;;;;;9.27;2.92;;;;;;;22.43;100.00;101263.00;2086668;28;20037;-73
2022/12/15 09:03:53;;;;;;;7.70;2.05;;;;;;;22.41;100.00;101265.72;2094469;28;20075;-73
2022/12/15 09:05:15;;;;;;;11.57;2.45;;;;;;;22.40;100.00;101263.94;2080159;28;20037;-73
2022/12/15 09:06:38;;;;;;;11.25;2.58;;;;;;;22.38;100.00;101263.13;2091656;28;20466;-73
2022/12/15 09:08:00;;;;;;;8.23;1.83;;;;;;;22.41;100.00;101270.22;2097260;28;20492;-73
2022/12/15 09:09:23;;;;;;;10.52;1.88;;;;;;;22.38;100.00;101257.75;2102944;28;20036;-73
2022/12/15 09:10:46;;;;;;;8.57;1.60;;;;;;;22.38;100.00;101241.59;2088899;28;20615;-73
2022/12/15 09:12:12;;;;;;;9.80;2.10;;;;;;;22.39;100.00;101264.88;2086567;28;20049;-73
2022/12/15 09:13:34;;;;;;;6.82;2.20;;;;;;;22.44;100.00;101256.69;2092531;28;20097;-73
2022/12/15 09:14:57;;;;;;;5.65;1.60;;;;;;;22.46;100.00;101255.72;2086352;28;20056;-73
2022/12/15 09:16:21;;;;;;;8.23;1.95;;;;;;;22.49;100.00;101258.34;2091209;28;20051;-73
2022/12/15 09:17:43;;;;;;;8.63;2.10;;;;;;;22.52;100.00;101252.88;2108928;28;20044;-73
2022/12/15 09:19:07;;;;;;;8.27;1.83;;;;;;;22.53;100.00;101260.03;2096095;28;20041;-73
2022/12/15 09:20:29;;;;;;;10.05;1.80;;;;;;;22.53;100.00;101243.00;2105212;28;20052;-72
2022/12/15 09:21:51;;;;;;;6.22;1.40;;;;;;;22.49;100.00;101247.59;2091734;28;20052;-73
2022/12/15 09:23:14;;;;;;;7.13;1.42;;;;;;;22.51;100.00;101252.94;2080557;28;20045;-73
2022/12/15 09:24:36;;;;;;;9.02;1.98;;;;;;;22.61;100.00;101249.06;2083554;28;20045;-73
2022/12/15 09:26:01;;;;;;;8.63;1.42;;;;;;;22.72;100.00;101255.03;2094795;28;20060;-73
2022/12/15 09:27:24;;;;;;;8.32;1.85;;;;;;;22.74;100.00;101246.97;2088696;28;20044;-73
2022/12/15 09:28:46;;;;;;;5.00;1.58;;;;;;;22.75;100.00;101246.03;2086415;28;20049;-73
2022/12/15 09:30:10;;;;;;;8.80;1.85;;;;;;;22.75;100.00;101259.50;2103109;28;20052;-73
2022/12/15 09:31:33;;;;;;;9.02;1.60;;;;;;;22.76;100.00;101229.84;2082658;28;20052;-73
2022/12/15 09:32:55;;;;;;;7.20;1.67;;;;;;;22.85;100.00;101250.25;2075390;28;20056;-73
2022/12/15 09:34:18;;;;;;;9.55;2.28;;;;;;;22.92;100.00;101257.22;2083514;28;20536;-73
2022/12/15 09:35:40;;;;;;;9.00;1.95;;;;;;;22.86;100.00;101258.28;2077980;28;20045;-73
2022/12/15 09:37:03;;;;;;;5.85;1.48;;;;;;;22.83;100.00;101250.31;2083658;28;20045;-73
2022/12/15 09:38:25;;;;;;;7.63;1.73;;;;;;;22.84;100.00;101240.44;2102915;28;20044;-73
2022/12/15 09:39:47;;;;;;;10.60;2.10;;;;;;;22.82;100.00;101227.00;2090856;28;20045;-73
2022/12/15 09:41:21;;;;;;;14.93;1.98;;;;;;;22.83;100.00;101246.72;2091079;28;20151;-73
2022/12/15 09:42:51;;;;;;;5.95;1.70;;;;;;;22.82;100.00;101237.75;2112729;28;20052;-73
2022/12/15 09:44:16;;;;;;;7.60;1.60;;;;;;;22.79;100.00;101245.91;2098577;28;20079;-73
2022/12/15 09:45:43;;;;;;;9.13;1.75;;;;;;;22.86;100.00;101238.56;2096866;28;20841;-73
2022/12/15 09:47:16;;;;;;;7.60;1.25;;;;;;;22.90;100.00;101235.75;2111841;28;20044;-73
2022/12/15 09:48:42;;;;;;;5.65;1.35;;;;;;;22.85;100.00;101234.97;2089558;28;20080;-73
2022/12/15 09:50:09;;;;;;;5.00;1.25;;;;;;;22.84;100.00;101243.13;2088251;28;20048;-73
2022/12/15 09:51:38;;;;;;;8.23;1.88;;;;;;;22.84;100.00;101232.34;2104245;28;20610;-73
2022/12/15 09:53:03;;;;;;;6.97;2.17;;;;;;;22.83;100.00;101235.97;2089889;28;20531;-73
2022/12/15 09:54:31;;;;;;;10.43;1.98;;;;;;;22.83;100.00;101223.38;2086355;28;20102;-73
2022/12/15 09:56:04;;;;;;;6.93;1.83;;;;;;;22.83;100.00;101230.56;2086589;28;20044;-73
2022/12/15 09:57:46;;;;;;;7.68;2.38;;;;;;;22.79;100.00;101216.28;2079547;28;20091;-73
2022/12/15 09:59:24;;;;;;;6.03;1.63;;;;;;;22.74;100.00;101210.16;2088587;28;20040;-73
2022/12/15 10:00:54;;;;;;;9.85;1.77;;;;;;;22.71;100.00;101202.13;2087781;28;20037;-73
2022/12/15 10:02:34;;;;;;;9.05;1.65;;;;;;;22.70;100.00;101224.59;2102753;28;20064;-73
2022/12/15 10:04:05;;;;;;;6.40;1.50;;;;;;;22.74;100.00;101218.25;2088381;28;20146;-73
2022/12/15 10:05:41;;;;;;;12.77;1.92;;;;;;;22.76;100.00;101211.00;2087422;28;20055;-73
2022/12/15 10:07:13;;;;;;;9.68;1.95;;;;;;;22.73;100.00;101204.81;2104210;28;20055;-72
2022/12/15 10:08:39;;;;;;;7.50;2.33;;;;;;;22.67;100.00;101211.22;2089579;28;20060;-73
2022/12/15 10:10:08;;;;;;;7.05;1.83;;;;;;;22.71;100.00;101210.19;2078018;28;20050;-73
2022/12/15 10:11:44;;;;;;;6.50;1.33;;;;;;;22.75;100.00;101211.94;2085058;28;20663;-73
2022/12/15 10:13:18;;;;;;;8.30;1.90;;;;;;;22.78;100.00;101209.13;2079420;28;20101;-73
2022/12/15 10:14:44;;;;;;;12.50;1.90;;;;;;;22.75;100.00;101194.91;2077925;28;20046;-73
2022/12/15 10:16:18;;;;;;;7.93;1.60;;;;;;;22.78;100.00;101209.13;2091702;28;20053;-73
2022/12/15 10:17:47;;;;;;;7.65;1.20;;;;;;;22.80;100.00;101210.00;2095624;28;20091;-73
2022/12/15 10:19:16;;;;;;;10.45;1.63;;;;;;;22.78;100.00;101217.22;2096579;28;20056;-74
2022/12/15 10:20:38;;;;;;;5.93;1.50;;;;;;;22.78;100.00;101209.13;2095085;28;20044;-74
2022/12/15 10:22:01;;;;;;;6.20;1.80;;;;;;;22.78;100.00;101203.75;2094337;28;20531;-73
2022/12/15 10:23:25;;;;;;;4.22;1.15;;;;;;;22.77;100.00;101210.09;2093730;28;20036;-73
2022/12/15 10:24:48;;;;;;;11.23;2.33;;;;;;;22.74;100.00;101210.16;2085364;28;20049;-73
2022/12/15 10:26:19;;;;;;;8.45;1.73;;;;;;;22.79;100.00;101205.53;2084310;28;20068;-74
2022/12/15 10:28:17;;;;;;;6.60;1.67;;;;;;;22.81;100.00;101205.50;2103535;28;20445;-73
2022/12/15 10:29:44;;;;;;;6.57;1.83;;;;;;;22.79;100.00;101200.13;2092600;28;20041;-73
2022/12/15 10:31:16;;;;;;;9.35;2.35;;;;;;;22.84;100.00;101197.34;2104842;28;20478;-73
2022/12/15 10:32:51;;;;;;;6.10;1.00;;;;;;;22.85;100.00;101205.34;2098089;28;20040;-73
2022/12/15 10:34:24;;;;;;;7.85;1.85;;;;;;;22.91;100.00;101207.00;2096629;28;20040;-73
2022/12/15 10:35:47;;;;;;;8.32;1.30;;;;;;;22.96;100.00;101203.25;2080234;28;20133;-73
2022/12/15 10:37:15;;;;;;;5.70;1.10;;;;;;;22.97;100.00;101205.00;2091585;28;20153;-74
2022/12/15 10:38:41;;;;;;;4.50;1.20;;;;;;;22.98;100.00;101209.47;2096584;28;20044;-74
2022/12/15 10:40:04;;;;;;;6.38;2.13;;;;;;;23.01;100.00;101204.00;2104787;28;20044;-73
2022/12/15 10:41:26;;;;;;;5.78;1.17;;;;;;;23.04;100.00;101201.22;2090908;28;20064;-73
2022/12/15 10:42:50;;;;;;;7.72;1.80;;;;;;;23.06;100.00;101198.47;2102508;28;20047;-73
2022/12/15 10:44:24;;;;;;;7.80;1.38;;;;;;;23.01;100.00;101197.75;2104764;28;20046;-73
2022/12/15 10:45:49;;;;;;;5.65;1.52;;;;;;;23.02;100.00;101203.09;2105062;28;20072;-72
2022/12/15 10:47:17;;;;;;;7.50;1.58;;;;;;;23.04;100.00;101203.91;2097501;28;20052;-72
2022/12/15 10:48:40;;;;;;;6.25;1.75;;;;;;;23.07;100.00;101202.06;2087619;28;20053;-72
2022/12/15 10:50:18;;;;;;;3.97;1.13;;;;;;;23.05;100.00;101211.06;2091157;28;20508;-73
2022/12/15 10:51:44;;;;;;;8.43;1.50;;;;;;;22.98;100.00;101201.38;2103881;28;20047;-71
2022/12/15 10:53:09;;;;;;;4.47;1.23;;;;;;;22.90;100.00;101199.88;2089858;28;20041;-71
2022/12/15 10:54:36;;;;;;;4.90;1.10;;;;;;;22.89;100.00;101203.47;2085369;28;20502;-71
2022/12/15 10:56:00;;;;;;;6.28;1.20;;;;;;;22.83;100.00;101199.16;2093461;28;20052;-71
2022/12/15 10:57:27;;;;;;;6.90;1.90;;;;;;;22.78;100.00;101200.19;2085316;28;20048;-72
2022/12/15 10:58:52;;;;;;;6.88;1.50;;;;;;;22.77;100.00;101202.00;2080660;28;20140;-72
2022/12/15 11:00:28;;;;;;;9.48;2.03;;;;;;;22.83;100.00;101192.88;2090512;28;20095;-71
2022/12/15 11:01:51;;;;;;;8.20;1.20;;;;;;;22.88;100.00;101197.19;2103624;28;20511;-71
2022/12/15 11:03:22;;;;;;;8.13;1.30;;;;;;;22.91;100.00;101201.59;2085996;28;20057;-71
2022/12/15 11:04:58;;;;;;;5.97;0.90;;;;;;;22.88;100.00;101199.91;2086251;28;20071;-71
2022/12/15 11:06:24;;;;;;;5.57;1.10;;;;;;;22.86;100.00;101195.47;2088113;28;20040;-72
2022/12/15 11:07:48;;;;;;;4.00;0.88;;;;;;;22.83;100.00;101196.47;2085660;28;20048;-72
2022/12/15 11:09:28;;;;;;;10.07;1.88;;;;;;;22.78;100.00;101190.28;2081835;28;20071;-71
2022/12/15 11:14:14;;;;;;;5.93;1.10;;;;;;;22.75;100.00;101193.09;2078913;28;20050;-72
2022/12/15 11:15:44;;;;;;;4.45;1.17;;;;;;;22.74;100.00;101193.13;2086025;28;20049;-71
2022/12/15 11:17:07;;;;;;;7.95;1.20;;;;;;;22.68;100.00;101178.00;2102451;28;20035;-71
2022/12/15 11:18:39;;;;;;;8.98;1.40;;;;;;;22.70;100.00;101176.16;2083613;28;20132;-72
2022/12/15 11:20:05;;;;;;;4.25;1.10;;;;;;;22.67;100.00;101176.22;2085163;28;20556;-72
2022/12/15 11:21:33;;;;;;;4.90;1.40;;;;;;;22.65;100.00;101180.75;2085543;28;20056;-72
2022/12/15 11:23:03;;;;;;;8.18;1.30;;;;;;;22.64;100.00;101184.41;2087225;28;20056;-72
2022/12/15 11:24:34;;;;;;;7.45;1.23;;;;;;;22.62;100.00;101179.06;2095092;28;20053;-72
2022/12/15 11:26:01;;;;;;;6.32;0.88;;;;;;;22.65;100.00;101183.44;2088838;28;20045;-72
2022/12/15 11:27:28;;;;;;;5.55;1.17;;;;;;;22.65;100.00;101176.25;2090045;28;20476;-71
2022/12/15 11:28:56;;;;;;;13.88;1.85;;;;;;;22.70;100.00;101184.22;2088000;28;20105;-72
2022/12/15 11:30:21;;;;;;;7.70;1.48;;;;;;;22.73;100.00;101181.47;2091127;28;20041;-73
2022/12/15 11:31:46;;;;;;;8.88;2.13;;;;;;;22.77;100.00;101172.41;2102034;28;20075;-72
2022/12/15 11:33:09;;;;;;;10.68;1.35;;;;;;;22.79;100.00;101170.53;2094053;28;20053;-71
2022/12/15 11:34:36;;;;;;;8.88;1.05;;;;;;;22.83;100.00;101163.25;2094849;28;20075;-71
2022/12/15 11:36:09;;;;;;;10.13;1.10;;;;;;;22.82;100.00;101170.44;2084021;28;20513;-70
2022/12/15 11:37:42;;;;;;;3.35;1.17;;;;;;;22.77;100.00;101166.13;2087485;28;20816;-72
2022/12/15 11:39:13;;;;;;;6.50;0.88;;;;;;;22.71;100.00;101174.34;2090354;28;20037;-72
2022/12/15 11:40:39;;;;;;;5.00;1.55;;;;;;;22.65;100.00;101168.19;2091839;28;20966;-72
2022/12/15 11:42:10;;;;;;;6.80;1.65;;;;;;;22.63;100.00;101167.38;2092478;28;20075;-72
2022/12/15 11:43:54;;;;;;;4.95;1.40;;;;;;;22.61;100.00;101168.31;2085765;28;20047;-72
2022/12/15 11:45:22;;;;;;;7.35;1.05;;;;;;;22.57;100.00;101170.22;2079644;28;20048;-71
2022/12/15 11:46:54;;;;;;;4.78;1.23;;;;;;;22.51;100.00;101174.88;2076209;28;20046;-71
2022/12/15 11:48:18;;;;;;;;;;;;;;;22.44;100.00;101160.72;2077334;28;20053;-72
2022/12/15 11:50:30;;;;;;;9.55;1.23;;;;;;;22.43;100.00;101166.13;2085849;28;20007;-72
2022/12/15 11:51:59;;;;;;;10.52;1.27;;;;;;;22.40;100.00;101153.63;2047221;28;20086;-72
2022/12/15 11:53:48;;;;;;;5.47;1.63;;;;;;;22.37;100.00;101172.56;2050672;28;20035;-72
2022/12/15 11:55:21;;;;;;;6.45;1.05;;;;;;;22.35;100.00;101173.50;2054719;28;20051;-72
2022/12/15 11:56:47;;;;;;;10.57;2.28;;;;;;;22.34;100.00;101166.38;2060686;28;20074;-73
2022/12/15 11:58:41;;;;;;;5.68;1.20;;;;;;;22.34;100.00;101167.25;2095854;28;20071;-72
2022/12/15 12:00:08;;;;;;;11.00;1.48;;;;;;;22.33;100.00;101176.25;2088754;28;20057;-73
2022/12/15 12:02:00;;;;;;;8.98;1.30;;;;;;;22.37;100.00;101171.69;2106923;28;20043;-74
2022/12/15 12:03:31;;;;;;;10.77;1.38;;;;;;;22.37;100.00;101167.19;2095200;28;20049;-74
2022/12/15 12:05:14;;;;;;;7.97;2.25;;;;;;;22.37;100.00;101172.56;2095516;28;20412;-74
2022/12/15 12:06:45;;;;;;;8.05;1.02;;;;;;;22.35;100.00;101169.03;2081034;28;20045;-75
2022/12/15 12:08:20;;;;;;;9.10;1.35;;;;;;;22.33;100.00;101180.72;2092803;28;20053;-74
2022/12/15 12:09:47;;;;;;;4.10;0.82;;;;;;;22.32;100.00;101165.53;2096547;28;20547;-74
2022/12/15 12:11:13;;;;;;;6.40;1.40;;;;;;;22.33;100.00;101170.84;2086442;28;20487;-74
2022/12/15 12:12:44;;;;;;;7.15;1.10;;;;;;;22.32;100.00;101173.63;2105721;28;20043;-73
2022/12/15 12:14:17;;;;;;;6.25;1.48;;;;;;;22.31;100.00;101172.72;2103977;28;20056;-73
2022/12/15 12:15:48;;;;;;;6.03;1.20;;;;;;;22.31;100.00;101171.84;2104219;28;20056;-74
2022/12/15 12:17:20;;;;;;;8.00;1.58;;;;;;;22.29;100.00;101171.00;2104639;28;20508;-74
2022/12/15 12:18:48;;;;;;;11.27;1.60;;;;;;;22.26;100.00;101185.38;2092685;28;20048;-75
2022/12/15 12:20:18;;;;;;;4.63;1.00;;;;;;;22.23;100.00;101189.06;2092339;28;20052;-73
2022/12/15 12:21:44;;;;;;;6.05;1.02;;;;;;;22.21;100.00;101192.69;2112832;28;20043;-73
2022/12/15 12:23:17;;;;;;;5.22;1.00;;;;;;;22.18;100.00;101187.41;2090959;28;20451;-73
2022/12/15 12:24:45;;;;;;;5.88;1.02;;;;;;;22.18;100.00;101191.00;2104739;28;20056;-74
2022/12/15 12:26:15;;;;;;;6.38;1.77;;;;;;;22.16;100.00;101183.88;2099340;28;20051;-73
2022/12/15 12:27:44;;;;;;;6.03;0.98;;;;;;;22.13;100.00;101181.25;2086825;28;20053;-73
2022/12/15 12:29:13;;;;;;;6.70;0.82;;;;;;;22.10;100.00;101195.66;2091630;28;20520;-74
2022/12/15 12:30:42;;;;;;;6.70;1.27;;;;;;;22.09;100.00;101191.22;2085884;28;20052;-72
2022/12/15 12:32:11;;;;;;;7.82;1.48;;;;;;;22.08;100.00;101185.88;2095913;28;20467;-74
2022/12/15 12:33:40;;;;;;;7.25;1.25;;;;;;;22.06;100.00;101185.00;2085683;28;20052;-73
2022/12/15 12:35:09;;;;;;;6.13;1.52;;;;;;;22.02;100.00;101186.91;2077393;28;20063;-74
2022/12/15 12:36:31;;;;;;;6.13;1.00;;;;;;;22.02;100.00;101192.28;2085717;28;20045;-73
2022/12/15 12:37:59;;;;;;;8.50;2.10;;;;;;;22.00;100.00;101194.13;2089826;28;20550;-74
2022/12/15 12:39:24;;;;;;;7.45;1.55;;;;;;;21.98;100.00;101193.28;2091240;28;20408;-74
2022/12/15 12:40:58;;;;;;;7.35;1.50;;;;;;;21.94;100.00;101172.72;2095694;28;20524;-74
2022/12/15 12:42:28;;;;;;;6.90;1.27;;;;;;;21.91;100.00;101182.69;2087637;28;20051;-74
2022/12/15 12:43:54;;;;;;;6.38;0.98;;;;;;;21.86;100.00;101199.78;2080272;28;20072;-74
2022/12/15 12:45:18;;;;;;;7.55;1.10;;;;;;;21.83;100.00;101190.94;2084289;28;20052;-73
2022/12/15 12:46:43;;;;;;;6.85;1.02;;;;;;;21.81;100.00;101192.75;2107237;28;20099;-73
2022/12/15 12:48:14;;;;;;;6.18;1.33;;;;;;;21.79;100.00;101190.09;2091058;28;20053;-73
2022/12/15 12:49:42;;;;;;;8.68;1.25;;;;;;;21.79;100.00;101206.22;2093465;28;20125;-73
2022/12/15 12:51:17;;;;;;;6.00;1.15;;;;;;;21.78;100.00;101204.50;2087791;28;20707;-74
2022/12/15 12:52:49;;;;;;;5.03;1.27;;;;;;;21.78;100.00;101199.09;2092730;28;20055;-73
2022/12/15 12:54:43;;;;;;;4.90;0.82;;;;;;;21.74;100.00;101205.47;2095667;28;20046;-74
2022/12/15 12:56:06;;;;;;;5.57;0.98;;;;;;;21.73;100.00;101209.06;2088627;28;20528;-74
2022/12/15 12:57:37;;;;;;;7.97;1.75;;;;;;;21.73;100.00;101200.09;2086375;28;20102;-73
2022/12/15 12:58:59;;;;;;;5.10;0.93;;;;;;;21.72;100.00;101203.75;2087637;28;20048;-74
2022/12/15 13:00:24;;;;;;;7.63;1.08;;;;;;;21.70;100.00;101208.25;2082441;28;20040;-76
2022/12/15 13:01:47;;;;;;;5.07;1.25;;;;;;;21.67;100.00;101219.94;2100663;28;20056;-74
2022/12/15 13:03:16;;;;;;;4.38;1.00;;;;;;;21.66;100.00;101215.50;2093627;28;20082;-74
2022/12/15 13:04:43;;;;;;;5.97;1.10;;;;;;;21.65;100.00;101223.63;2095387;28;20059;-74
2022/12/15 13:06:21;;;;;;;6.63;0.90;;;;;;;21.60;100.00;101215.63;2094023;28;20036;-73
2022/12/15 13:07:54;;;;;;;7.00;1.20;;;;;;;21.59;100.00;101224.66;2095923;28;20056;-74
2022/12/15 13:09:24;;;;;;;4.75;0.95;;;;;;;21.59;100.00;101210.31;2111278;28;20047;-73
2022/12/15 13:10:47;;;;;;;7.35;1.35;;;;;;;21.59;100.00;101218.38;2090747;28;20047;-74
2022/12/15 13:12:46;;;;;;;4.72;1.08;;;;;;;21.54;100.00;101209.50;2094400;28;20086;-73
2022/12/15 13:14:15;;;;;;;3.40;0.70;;;;;;;21.52;100.00;101217.63;2055815;28;20438;-73
2022/12/15 13:15:42;;;;;;;7.32;1.15;;;;;;;21.48;100.00;101213.22;2054347;28;20134;-74
2022/12/15 13:17:11;;;;;;;11.00;1.33;;;;;;;21.46;100.00;101213.25;2084168;28;20386;-73
2022/12/15 13:18:56;;;;;;;7.82;1.17;;;;;;;21.43;100.00;101216.03;2093555;28;20046;-73
2022/12/15 13:20:38;;;;;;;4.22;0.82;;;;;;;21.40;100.00;101225.94;2088822;28;20202;-73
2022/12/15 13:22:01;;;;;;;4.57;1.33;;;;;;;21.40;100.00;101217.88;2089016;28;20049;-73
2022/12/15 13:23:40;;;;;;;7.75;0.85;;;;;;;21.36;100.00;101222.44;2091734;28;20053;-73
2022/12/15 13:25:23;;;;;;;5.13;0.95;;;;;;;21.35;100.00;101225.16;2095988;28;20044;-73
2022/12/15 13:26:46;;;;;;;2.50;0.77;;;;;;;21.33;100.00;101232.38;2105422;28;20091;-73
2022/12/15 13:28:43;;;;;;;8.70;2.08;;;;;;;21.29;100.00;101219.91;2088945;28;20044;-73
2022/12/15 13:30:15;;;;;;;5.88;1.10;;;;;;;21.23;100.00;101215.56;2087457;28;20060;-73
2022/12/15 13:31:48;;;;;;;5.82;1.05;;;;;;;21.18;100.00;101212.09;2086875;28;20815;-73
2022/12/15 13:33:18;;;;;;;5.03;0.98;;;;;;;21.15;100.00;101209.41;2105177;28;20052;-73
2022/12/15 13:34:44;;;;;;;4.28;1.17;;;;;;;21.13;100.00;101219.34;2086519;28;20045;-73
2022/12/15 13:36:07;;;;;;;6.43;1.20;;;;;;;21.10;100.00;101216.69;2088232;28;20049;-73
2022/12/15 13:37:45;;;;;;;6.60;1.02;;;;;;;21.07;100.00;101228.38;2088694;28;20101;-72
2022/12/15 13:39:45;;;;;;;6.28;1.25;;;;;;;21.05;100.00;101226.66;2103775;28;20060;-73
2022/12/15 13:41:22;;;;;;;8.32;1.52;;;;;;;21.02;100.00;101232.06;2096992;28;20063;-73
2022/12/15 13:42:45;;;;;;;7.30;1.35;;;;;;;21.00;100.00;101236.59;2104846;28;20077;-73
2022/12/15 13:44:15;;;;;;;5.47;0.98;;;;;;;20.98;100.00;101231.25;2091211;28;20044;-73
2022/12/15 13:45:49;;;;;;;14.27;1.33;;;;;;;20.95;100.00;101200.88;2085197;28;20057;-73
2022/12/15 13:47:15;;;;;;;5.40;1.17;;;;;;;20.93;100.00;101234.94;2092950;28;20060;-73
2022/12/15 13:48:40;;;;;;;5.35;1.05;;;;;;;20.91;100.00;101231.41;2094329;28;20109;-74
2022/12/15 13:50:11;;;;;;;8.30;1.33;;;;;;;20.89;100.00;101241.28;2110737;28;20369;-73
2022/12/15 13:51:42;;;;;;;8.13;1.25;;;;;;;20.85;100.00;101243.16;2098414;28;20060;-73
2022/12/15 13:53:09;;;;;;;7.22;1.27;;;;;;;20.84;100.00;101237.81;2087023;28;20084;-73
2022/12/15 13:54:34;;;;;;;7.72;1.25;;;;;;;20.80;100.00;101234.31;2109332;28;20074;-73